sensor_id;sensor_type;location;lat;lon;timestamp;temperature;humidity
1812;DHT22;904;47.814;11.134;2024-02-21T00:01:37;4.60;72.80
1812;DHT22;904;47.814;11.134;2024-02-21T00:04:04;4.50;72.90
1812;DHT22;904;47.814;11.134;2024-02-21T00:06:31;4.50;73.00
1812;DHT22;904;47.814;11.134;2024-02-21T00:08:58;4.50;73.30
1812;DHT22;904;47.814;11.134;2024-02-21T00:11:28;4.50;73.50
1812;DHT22;904;47.814;11.134;2024-02-21T00:13:55;4.60;73.60
1812;DHT22;904;47.814;11.134;2024-02-21T00:16:22;4.70;73.60
1812;DHT22;904;47.814;11.134;2024-02-21T00:18:49;4.70;73.00
1812;DHT22;904;47.814;11.134;2024-02-21T00:21:16;4.80;72.60
1812;DHT22;904;47.814;11.134;2024-02-21T00:23:44;4.80;72.20
1812;DHT22;904;47.814;11.134;2024-02-21T00:26:12;4.80;71.40
1812;DHT22;904;47.814;11.134;2024-02-21T00:28:41;4.70;71.60
1812;DHT22;904;47.814;11.134;2024-02-21T00:31:08;4.60;72.00
1812;DHT22;904;47.814;11.134;2024-02-21T00:33:35;4.50;72.50
1812;DHT22;904;47.814;11.134;2024-02-21T00:36:02;4.40;72.40
1812;DHT22;904;47.814;11.134;2024-02-21T00:38:29;4.30;73.20
1812;DHT22;904;47.814;11.134;2024-02-21T00:40:56;4.30;73.70
1812;DHT22;904;47.814;11.134;2024-02-21T00:43:23;4.20;73.70
1812;DHT22;904;47.814;11.134;2024-02-21T00:45:52;4.20;74.50
1812;DHT22;904;47.814;11.134;2024-02-21T00:48:19;4.10;74.70
1812;DHT22;904;47.814;11.134;2024-02-21T00:50:46;4.10;74.70
1812;DHT22;904;47.814;11.134;2024-02-21T00:53:13;4.20;74.70
1812;DHT22;904;47.814;11.134;2024-02-21T00:55:40;4.20;74.70
1812;DHT22;904;47.814;11.134;2024-02-21T00:58:09;4.20;75.00
1812;DHT22;904;47.814;11.134;2024-02-21T01:00:36;4.20;75.10
1812;DHT22;904;47.814;11.134;2024-02-21T01:03:04;4.20;74.90
1812;DHT22;904;47.814;11.134;2024-02-21T01:05:31;4.30;75.00
1812;DHT22;904;47.814;11.134;2024-02-21T01:07:58;4.40;74.50
1812;DHT22;904;47.814;11.134;2024-02-21T01:10:25;4.40;73.90
1812;DHT22;904;47.814;11.134;2024-02-21T01:12:52;4.40;73.00
1812;DHT22;904;47.814;11.134;2024-02-21T01:15:19;4.40;72.70
1812;DHT22;904;47.814;11.134;2024-02-21T01:17:47;4.50;72.40
1812;DHT22;904;47.814;11.134;2024-02-21T01:20:17;4.50;72.20
1812;DHT22;904;47.814;11.134;2024-02-21T01:22:44;4.50;72.00
1812;DHT22;904;47.814;11.134;2024-02-21T01:25:11;4.50;72.20
1812;DHT22;904;47.814;11.134;2024-02-21T01:27:38;4.50;72.40
1812;DHT22;904;47.814;11.134;2024-02-21T01:30:06;4.50;72.40
1812;DHT22;904;47.814;11.134;2024-02-21T01:32:33;4.50;72.60
1812;DHT22;904;47.814;11.134;2024-02-21T01:35:00;4.50;72.70
1812;DHT22;904;47.814;11.134;2024-02-21T01:37:29;4.50;72.80
1812;DHT22;904;47.814;11.134;2024-02-21T01:39:56;4.60;72.80
1812;DHT22;904;47.814;11.134;2024-02-21T01:42:23;4.60;72.40
1812;DHT22;904;47.814;11.134;2024-02-21T01:44:50;4.60;72.40
1812;DHT22;904;47.814;11.134;2024-02-21T01:47:18;4.60;72.30
1812;DHT22;904;47.814;11.134;2024-02-21T01:49:46;4.60;72.00
1812;DHT22;904;47.814;11.134;2024-02-21T01:52:14;4.60;71.80
1812;DHT22;904;47.814;11.134;2024-02-21T01:54:44;4.70;71.50
1812;DHT22;904;47.814;11.134;2024-02-21T01:57:11;4.70;70.70
1812;DHT22;904;47.814;11.134;2024-02-21T01:59:39;4.70;70.80
1812;DHT22;904;47.814;11.134;2024-02-21T02:02:06;4.70;70.40
1812;DHT22;904;47.814;11.134;2024-02-21T02:04:34;4.60;69.70
1812;DHT22;904;47.814;11.134;2024-02-21T02:07:02;4.70;69.20
1812;DHT22;904;47.814;11.134;2024-02-21T02:09:31;4.60;69.20
1812;DHT22;904;47.814;11.134;2024-02-21T02:12:01;4.60;69.50
1812;DHT22;904;47.814;11.134;2024-02-21T02:14:30;4.50;70.20
1812;DHT22;904;47.814;11.134;2024-02-21T02:16:57;4.50;69.80
1812;DHT22;904;47.814;11.134;2024-02-21T02:19:24;4.50;70.30
1812;DHT22;904;47.814;11.134;2024-02-21T02:21:55;4.50;70.50
1812;DHT22;904;47.814;11.134;2024-02-21T02:24:24;4.40;70.70
1812;DHT22;904;47.814;11.134;2024-02-21T02:26:52;4.50;70.80
1812;DHT22;904;47.814;11.134;2024-02-21T02:29:19;4.50;70.00
1812;DHT22;904;47.814;11.134;2024-02-21T02:31:46;4.50;69.30
1812;DHT22;904;47.814;11.134;2024-02-21T02:34:13;4.50;69.50
1812;DHT22;904;47.814;11.134;2024-02-21T02:36:40;4.50;69.40
1812;DHT22;904;47.814;11.134;2024-02-21T02:39:07;4.50;69.70
1812;DHT22;904;47.814;11.134;2024-02-21T02:41:36;4.50;70.00
1812;DHT22;904;47.814;11.134;2024-02-21T02:44:03;4.50;70.60
1812;DHT22;904;47.814;11.134;2024-02-21T02:46:31;4.50;71.20
1812;DHT22;904;47.814;11.134;2024-02-21T02:48:58;4.60;70.80
1812;DHT22;904;47.814;11.134;2024-02-21T02:51:25;4.50;70.90
1812;DHT22;904;47.814;11.134;2024-02-21T02:53:52;4.50;70.90
1812;DHT22;904;47.814;11.134;2024-02-21T02:56:19;4.50;71.10
1812;DHT22;904;47.814;11.134;2024-02-21T02:58:47;4.50;70.90
1812;DHT22;904;47.814;11.134;2024-02-21T03:01:14;4.60;71.00
1812;DHT22;904;47.814;11.134;2024-02-21T03:03:41;4.60;70.40
1812;DHT22;904;47.814;11.134;2024-02-21T03:06:08;4.50;70.20
1812;DHT22;904;47.814;11.134;2024-02-21T03:08:35;4.50;70.30
1812;DHT22;904;47.814;11.134;2024-02-21T03:11:02;4.50;70.30
1812;DHT22;904;47.814;11.134;2024-02-21T03:13:29;4.50;70.10
1812;DHT22;904;47.814;11.134;2024-02-21T03:15:58;4.50;70.20
1812;DHT22;904;47.814;11.134;2024-02-21T03:18:25;4.60;70.10
1812;DHT22;904;47.814;11.134;2024-02-21T03:20:53;4.50;69.80
1812;DHT22;904;47.814;11.134;2024-02-21T03:23:19;4.50;70.20
1812;DHT22;904;47.814;11.134;2024-02-21T03:25:46;4.50;70.10
1812;DHT22;904;47.814;11.134;2024-02-21T03:28:13;4.40;69.90
1812;DHT22;904;47.814;11.134;2024-02-21T03:30:40;4.40;69.20
1812;DHT22;904;47.814;11.134;2024-02-21T03:33:09;4.40;69.20
1812;DHT22;904;47.814;11.134;2024-02-21T03:35:36;4.40;69.00
1812;DHT22;904;47.814;11.134;2024-02-21T03:38:03;4.30;69.10
1812;DHT22;904;47.814;11.134;2024-02-21T03:40:30;4.30;69.60
1812;DHT22;904;47.814;11.134;2024-02-21T03:42:57;4.30;69.50
1812;DHT22;904;47.814;11.134;2024-02-21T03:45:24;4.30;69.60
1812;DHT22;904;47.814;11.134;2024-02-21T03:47:51;4.30;69.80
1812;DHT22;904;47.814;11.134;2024-02-21T03:50:20;4.30;69.50
1812;DHT22;904;47.814;11.134;2024-02-21T03:52:46;4.30;69.60
1812;DHT22;904;47.814;11.134;2024-02-21T03:55:14;4.20;69.90
1812;DHT22;904;47.814;11.134;2024-02-21T03:57:41;4.20;70.10
1812;DHT22;904;47.814;11.134;2024-02-21T04:00:08;4.20;70.00
1812;DHT22;904;47.814;11.134;2024-02-21T04:02:39;4.20;70.10
1812;DHT22;904;47.814;11.134;2024-02-21T04:05:06;4.20;70.20
1812;DHT22;904;47.814;11.134;2024-02-21T04:07:38;4.20;70.10
1812;DHT22;904;47.814;11.134;2024-02-21T04:10:06;4.20;69.90
1812;DHT22;904;47.814;11.134;2024-02-21T04:12:33;4.10;69.20
1812;DHT22;904;47.814;11.134;2024-02-21T04:15:00;4.10;68.90
1812;DHT22;904;47.814;11.134;2024-02-21T04:17:27;4.10;69.40
1812;DHT22;904;47.814;11.134;2024-02-21T04:20:02;4.10;69.90
1812;DHT22;904;47.814;11.134;2024-02-21T04:22:30;4.10;70.00
1812;DHT22;904;47.814;11.134;2024-02-21T04:25:01;4.10;70.20
1812;DHT22;904;47.814;11.134;2024-02-21T04:27:28;4.10;70.10
1812;DHT22;904;47.814;11.134;2024-02-21T04:29:55;4.10;70.60
1812;DHT22;904;47.814;11.134;2024-02-21T04:32:22;4.10;70.70
1812;DHT22;904;47.814;11.134;2024-02-21T04:34:50;4.00;70.30
1812;DHT22;904;47.814;11.134;2024-02-21T04:37:17;4.00;70.50
1812;DHT22;904;47.814;11.134;2024-02-21T04:39:44;4.00;70.30
1812;DHT22;904;47.814;11.134;2024-02-21T04:42:13;4.00;70.70
1812;DHT22;904;47.814;11.134;2024-02-21T04:44:41;3.90;70.70
1812;DHT22;904;47.814;11.134;2024-02-21T04:47:08;4.00;71.10
1812;DHT22;904;47.814;11.134;2024-02-21T04:49:35;4.00;71.30
1812;DHT22;904;47.814;11.134;2024-02-21T04:52:03;4.00;71.10
1812;DHT22;904;47.814;11.134;2024-02-21T04:54:30;3.90;71.30
1812;DHT22;904;47.814;11.134;2024-02-21T04:56:56;3.80;71.60
1812;DHT22;904;47.814;11.134;2024-02-21T04:59:25;3.90;71.70
1812;DHT22;904;47.814;11.134;2024-02-21T05:01:52;4.00;71.30
1812;DHT22;904;47.814;11.134;2024-02-21T05:04:19;4.00;70.80
1812;DHT22;904;47.814;11.134;2024-02-21T05:06:46;3.90;72.20
1812;DHT22;904;47.814;11.134;2024-02-21T05:09:14;3.80;71.60
1812;DHT22;904;47.814;11.134;2024-02-21T05:11:41;3.80;72.00
1812;DHT22;904;47.814;11.134;2024-02-21T05:14:08;3.90;72.30
1812;DHT22;904;47.814;11.134;2024-02-21T05:16:38;3.90;72.00
1812;DHT22;904;47.814;11.134;2024-02-21T05:19:06;3.90;72.00
1812;DHT22;904;47.814;11.134;2024-02-21T05:21:33;3.90;71.70
1812;DHT22;904;47.814;11.134;2024-02-21T05:24:00;3.90;71.10
1812;DHT22;904;47.814;11.134;2024-02-21T05:26:28;4.00;70.90
1812;DHT22;904;47.814;11.134;2024-02-21T05:28:55;4.00;70.90
1812;DHT22;904;47.814;11.134;2024-02-21T05:31:22;4.00;70.90
1812;DHT22;904;47.814;11.134;2024-02-21T05:33:50;3.90;70.90
1812;DHT22;904;47.814;11.134;2024-02-21T05:36:17;3.90;70.70
1812;DHT22;904;47.814;11.134;2024-02-21T05:38:44;3.90;70.90
1812;DHT22;904;47.814;11.134;2024-02-21T05:41:11;3.80;70.90
1812;DHT22;904;47.814;11.134;2024-02-21T05:43:39;3.80;71.10
1812;DHT22;904;47.814;11.134;2024-02-21T05:46:07;3.80;70.90
1812;DHT22;904;47.814;11.134;2024-02-21T05:48:35;3.80;71.10
1812;DHT22;904;47.814;11.134;2024-02-21T05:51:04;3.80;71.40
1812;DHT22;904;47.814;11.134;2024-02-21T05:53:31;3.80;71.30
1812;DHT22;904;47.814;11.134;2024-02-21T05:55:58;3.70;71.10
1812;DHT22;904;47.814;11.134;2024-02-21T05:58:25;3.70;71.30
1812;DHT22;904;47.814;11.134;2024-02-21T06:00:53;3.70;71.10
1812;DHT22;904;47.814;11.134;2024-02-21T06:03:20;3.70;71.30
1812;DHT22;904;47.814;11.134;2024-02-21T06:05:47;3.70;71.10
1812;DHT22;904;47.814;11.134;2024-02-21T06:08:15;3.70;70.70
1812;DHT22;904;47.814;11.134;2024-02-21T06:10:42;3.70;70.30
1812;DHT22;904;47.814;11.134;2024-02-21T06:13:09;3.70;70.90
1812;DHT22;904;47.814;11.134;2024-02-21T06:15:36;3.70;70.00
1812;DHT22;904;47.814;11.134;2024-02-21T06:18:03;3.70;70.30
1812;DHT22;904;47.814;11.134;2024-02-21T06:20:30;3.70;70.90
1812;DHT22;904;47.814;11.134;2024-02-21T06:22:57;3.70;70.90
1812;DHT22;904;47.814;11.134;2024-02-21T06:25:26;3.70;71.30
1812;DHT22;904;47.814;11.134;2024-02-21T06:27:52;3.80;71.80
1812;DHT22;904;47.814;11.134;2024-02-21T06:30:19;3.80;72.00
1812;DHT22;904;47.814;11.134;2024-02-21T06:32:46;3.90;72.40
1812;DHT22;904;47.814;11.134;2024-02-21T06:35:13;3.90;72.70
1812;DHT22;904;47.814;11.134;2024-02-21T06:37:40;3.90;73.20
1812;DHT22;904;47.814;11.134;2024-02-21T06:40:08;4.00;73.90
1812;DHT22;904;47.814;11.134;2024-02-21T06:42:36;4.20;73.80
1812;DHT22;904;47.814;11.134;2024-02-21T06:45:04;4.40;72.70
1812;DHT22;904;47.814;11.134;2024-02-21T06:47:31;4.60;72.20
1812;DHT22;904;47.814;11.134;2024-02-21T06:49:58;4.60;71.80
1812;DHT22;904;47.814;11.134;2024-02-21T06:52:26;4.70;71.80
1812;DHT22;904;47.814;11.134;2024-02-21T06:54:53;4.70;70.20
1812;DHT22;904;47.814;11.134;2024-02-21T06:57:20;4.70;69.40
1812;DHT22;904;47.814;11.134;2024-02-21T06:59:48;4.80;69.50
1812;DHT22;904;47.814;11.134;2024-02-21T07:02:15;4.80;69.00
1812;DHT22;904;47.814;11.134;2024-02-21T07:04:42;4.80;68.50
1812;DHT22;904;47.814;11.134;2024-02-21T07:07:10;4.80;68.80
1812;DHT22;904;47.814;11.134;2024-02-21T07:09:37;4.90;68.80
1812;DHT22;904;47.814;11.134;2024-02-21T07:12:04;5.00;67.80
1812;DHT22;904;47.814;11.134;2024-02-21T07:14:32;5.00;67.30
1812;DHT22;904;47.814;11.134;2024-02-21T07:17:01;5.10;66.90
1812;DHT22;904;47.814;11.134;2024-02-21T07:19:28;5.10;66.40
1812;DHT22;904;47.814;11.134;2024-02-21T07:21:54;5.10;65.40
1812;DHT22;904;47.814;11.134;2024-02-21T07:24:22;5.10;65.60
1812;DHT22;904;47.814;11.134;2024-02-21T07:26:49;5.20;66.50
1812;DHT22;904;47.814;11.134;2024-02-21T07:29:17;5.30;66.60
1812;DHT22;904;47.814;11.134;2024-02-21T07:31:44;5.40;67.20
1812;DHT22;904;47.814;11.134;2024-02-21T07:34:15;5.40;67.40
1812;DHT22;904;47.814;11.134;2024-02-21T07:36:42;5.50;67.10
1812;DHT22;904;47.814;11.134;2024-02-21T07:39:10;5.60;66.50
1812;DHT22;904;47.814;11.134;2024-02-21T07:41:37;5.70;65.80
1812;DHT22;904;47.814;11.134;2024-02-21T07:44:04;5.70;65.90
1812;DHT22;904;47.814;11.134;2024-02-21T07:46:31;5.70;66.10
1812;DHT22;904;47.814;11.134;2024-02-21T07:49:00;5.80;65.70
1812;DHT22;904;47.814;11.134;2024-02-21T07:51:29;5.90;64.90
1812;DHT22;904;47.814;11.134;2024-02-21T07:53:56;5.80;63.70
1812;DHT22;904;47.814;11.134;2024-02-21T07:56:23;5.80;63.30
1812;DHT22;904;47.814;11.134;2024-02-21T07:58:50;5.80;63.70
1812;DHT22;904;47.814;11.134;2024-02-21T08:01:18;5.90;63.80
1812;DHT22;904;47.814;11.134;2024-02-21T08:03:46;6.00;65.00
1812;DHT22;904;47.814;11.134;2024-02-21T08:06:13;6.30;65.40
1812;DHT22;904;47.814;11.134;2024-02-21T08:08:41;6.70;65.10
1812;DHT22;904;47.814;11.134;2024-02-21T08:11:08;7.00;62.00
1812;DHT22;904;47.814;11.134;2024-02-21T08:13:35;7.20;62.10
1812;DHT22;904;47.814;11.134;2024-02-21T08:16:02;7.90;61.80
1812;DHT22;904;47.814;11.134;2024-02-21T08:18:29;8.70;62.40
1812;DHT22;904;47.814;11.134;2024-02-21T08:20:57;9.80;58.40
1812;DHT22;904;47.814;11.134;2024-02-21T08:23:24;10.70;53.80
1812;DHT22;904;47.814;11.134;2024-02-21T08:25:52;11.50;52.50
1812;DHT22;904;47.814;11.134;2024-02-21T08:28:20;12.30;49.90
1812;DHT22;904;47.814;11.134;2024-02-21T08:30:46;12.90;49.30
1812;DHT22;904;47.814;11.134;2024-02-21T08:33:14;13.50;44.00
1812;DHT22;904;47.814;11.134;2024-02-21T08:35:42;13.90;43.70
1812;DHT22;904;47.814;11.134;2024-02-21T08:38:09;14.40;45.90
1812;DHT22;904;47.814;11.134;2024-02-21T08:40:36;14.90;42.10
1812;DHT22;904;47.814;11.134;2024-02-21T08:43:05;15.40;39.80
1812;DHT22;904;47.814;11.134;2024-02-21T08:45:32;15.80;40.10
1812;DHT22;904;47.814;11.134;2024-02-21T08:47:58;16.30;39.10
1812;DHT22;904;47.814;11.134;2024-02-21T08:50:25;16.70;36.30
1812;DHT22;904;47.814;11.134;2024-02-21T08:52:53;17.10;37.00
1812;DHT22;904;47.814;11.134;2024-02-21T08:55:20;17.40;36.10
1812;DHT22;904;47.814;11.134;2024-02-21T08:57:47;17.90;35.60
1812;DHT22;904;47.814;11.134;2024-02-21T09:00:16;18.30;32.60
1812;DHT22;904;47.814;11.134;2024-02-21T09:02:44;18.50;32.60
1812;DHT22;904;47.814;11.134;2024-02-21T09:05:11;18.90;32.60
1812;DHT22;904;47.814;11.134;2024-02-21T09:07:38;19.30;32.40
1812;DHT22;904;47.814;11.134;2024-02-21T09:10:06;19.70;31.40
1812;DHT22;904;47.814;11.134;2024-02-21T09:12:33;20.20;30.40
1812;DHT22;904;47.814;11.134;2024-02-21T09:15:00;20.50;30.00
1812;DHT22;904;47.814;11.134;2024-02-21T09:17:28;20.80;29.30
1812;DHT22;904;47.814;11.134;2024-02-21T09:19:56;21.00;28.70
1812;DHT22;904;47.814;11.134;2024-02-21T09:22:25;21.20;28.50
1812;DHT22;904;47.814;11.134;2024-02-21T09:24:52;21.40;27.00
1812;DHT22;904;47.814;11.134;2024-02-21T09:27:19;21.60;27.70
1812;DHT22;904;47.814;11.134;2024-02-21T09:29:46;21.80;26.70
1812;DHT22;904;47.814;11.134;2024-02-21T09:32:12;22.00;26.50
1812;DHT22;904;47.814;11.134;2024-02-21T09:34:41;22.10;25.20
1812;DHT22;904;47.814;11.134;2024-02-21T09:37:08;22.10;25.10
1812;DHT22;904;47.814;11.134;2024-02-21T09:39:35;22.20;26.10
1812;DHT22;904;47.814;11.134;2024-02-21T09:42:05;22.50;25.20
1812;DHT22;904;47.814;11.134;2024-02-21T09:44:36;22.90;25.90
1812;DHT22;904;47.814;11.134;2024-02-21T09:47:06;23.30;25.60
1812;DHT22;904;47.814;11.134;2024-02-21T09:49:34;23.60;24.60
1812;DHT22;904;47.814;11.134;2024-02-21T09:52:09;23.80;24.40
1812;DHT22;904;47.814;11.134;2024-02-21T09:54:39;24.20;23.90
1812;DHT22;904;47.814;11.134;2024-02-21T09:57:10;24.50;23.00
1812;DHT22;904;47.814;11.134;2024-02-21T09:59:37;24.60;23.00
1812;DHT22;904;47.814;11.134;2024-02-21T10:02:04;24.60;22.80
1812;DHT22;904;47.814;11.134;2024-02-21T10:04:32;24.70;23.20
1812;DHT22;904;47.814;11.134;2024-02-21T10:06:59;24.80;23.20
1812;DHT22;904;47.814;11.134;2024-02-21T10:09:28;25.00;21.20
1812;DHT22;904;47.814;11.134;2024-02-21T10:11:55;24.90;20.80
1812;DHT22;904;47.814;11.134;2024-02-21T10:14:22;24.90;21.30
1812;DHT22;904;47.814;11.134;2024-02-21T10:16:57;24.90;21.10
1812;DHT22;904;47.814;11.134;2024-02-21T10:19:24;25.00;21.60
1812;DHT22;904;47.814;11.134;2024-02-21T10:22:02;25.00;20.40
1812;DHT22;904;47.814;11.134;2024-02-21T10:24:31;24.90;20.60
1812;DHT22;904;47.814;11.134;2024-02-21T10:27:01;24.80;21.90
1812;DHT22;904;47.814;11.134;2024-02-21T10:29:29;24.70;20.90
1812;DHT22;904;47.814;11.134;2024-02-21T10:32:07;24.50;20.30
1812;DHT22;904;47.814;11.134;2024-02-21T10:34:35;24.30;19.80
1812;DHT22;904;47.814;11.134;2024-02-21T10:37:02;24.10;20.30
1812;DHT22;904;47.814;11.134;2024-02-21T10:39:32;24.00;21.30
1812;DHT22;904;47.814;11.134;2024-02-21T10:42:00;23.80;20.70
1812;DHT22;904;47.814;11.134;2024-02-21T10:44:30;23.40;21.10
1812;DHT22;904;47.814;11.134;2024-02-21T10:46:57;23.20;21.40
1812;DHT22;904;47.814;11.134;2024-02-21T10:49:25;23.20;21.40
1812;DHT22;904;47.814;11.134;2024-02-21T10:51:55;23.30;22.00
1812;DHT22;904;47.814;11.134;2024-02-21T10:54:37;23.40;21.20
1812;DHT22;904;47.814;11.134;2024-02-21T10:57:06;23.30;21.50
1812;DHT22;904;47.814;11.134;2024-02-21T10:59:37;23.40;21.30
1812;DHT22;904;47.814;11.134;2024-02-21T11:02:04;23.40;21.30
1812;DHT22;904;47.814;11.134;2024-02-21T11:04:32;23.40;21.60
1812;DHT22;904;47.814;11.134;2024-02-21T11:07:02;23.40;21.30
1812;DHT22;904;47.814;11.134;2024-02-21T11:09:31;23.20;20.50
1812;DHT22;904;47.814;11.134;2024-02-21T11:12:03;22.90;20.60
1812;DHT22;904;47.814;11.134;2024-02-21T11:14:30;22.80;20.90
1812;DHT22;904;47.814;11.134;2024-02-21T11:17:01;22.70;21.40
1812;DHT22;904;47.814;11.134;2024-02-21T11:19:29;22.70;20.80
1812;DHT22;904;47.814;11.134;2024-02-21T11:21:57;22.60;20.10
1812;DHT22;904;47.814;11.134;2024-02-21T11:24:27;22.50;20.30
1812;DHT22;904;47.814;11.134;2024-02-21T11:26:55;22.50;20.50
1812;DHT22;904;47.814;11.134;2024-02-21T11:29:27;22.50;19.60
1812;DHT22;904;47.814;11.134;2024-02-21T11:31:55;22.30;20.00
1812;DHT22;904;47.814;11.134;2024-02-21T11:34:22;22.10;18.60
1812;DHT22;904;47.814;11.134;2024-02-21T11:36:50;21.80;19.30
1812;DHT22;904;47.814;11.134;2024-02-21T11:39:21;21.60;18.60
1812;DHT22;904;47.814;11.134;2024-02-21T11:42:02;21.50;19.20
1812;DHT22;904;47.814;11.134;2024-02-21T11:44:31;21.50;19.90
1812;DHT22;904;47.814;11.134;2024-02-21T11:46:58;21.50;20.00
1812;DHT22;904;47.814;11.134;2024-02-21T11:49:29;21.60;19.80
1812;DHT22;904;47.814;11.134;2024-02-21T11:51:59;21.70;19.20
1812;DHT22;904;47.814;11.134;2024-02-21T11:54:34;21.90;20.00
1812;DHT22;904;47.814;11.134;2024-02-21T11:57:01;22.20;19.80
1812;DHT22;904;47.814;11.134;2024-02-21T11:59:31;22.40;19.60
1812;DHT22;904;47.814;11.134;2024-02-21T12:01:59;22.60;17.10
1812;DHT22;904;47.814;11.134;2024-02-21T12:04:26;22.70;17.40
1812;DHT22;904;47.814;11.134;2024-02-21T12:06:54;22.70;18.90
1812;DHT22;904;47.814;11.134;2024-02-21T12:09:23;22.90;18.00
1812;DHT22;904;47.814;11.134;2024-02-21T12:11:57;23.10;18.60
1812;DHT22;904;47.814;11.134;2024-02-21T12:14:26;23.30;18.60
1812;DHT22;904;47.814;11.134;2024-02-21T12:16:54;23.60;18.20
1812;DHT22;904;47.814;11.134;2024-02-21T12:19:22;23.90;16.60
1812;DHT22;904;47.814;11.134;2024-02-21T12:21:49;24.00;16.70
1812;DHT22;904;47.814;11.134;2024-02-21T12:24:21;24.20;16.10
1812;DHT22;904;47.814;11.134;2024-02-21T12:26:48;24.30;16.90
1812;DHT22;904;47.814;11.134;2024-02-21T12:29:15;24.60;17.40
1812;DHT22;904;47.814;11.134;2024-02-21T12:31:47;24.80;16.40
1812;DHT22;904;47.814;11.134;2024-02-21T12:34:16;24.90;16.60
1812;DHT22;904;47.814;11.134;2024-02-21T12:36:44;25.10;16.60
1812;DHT22;904;47.814;11.134;2024-02-21T12:39:13;25.10;15.50
1812;DHT22;904;47.814;11.134;2024-02-21T12:41:40;25.20;15.90
1812;DHT22;904;47.814;11.134;2024-02-21T12:44:08;25.20;17.00
1812;DHT22;904;47.814;11.134;2024-02-21T12:46:42;25.10;16.20
1812;DHT22;904;47.814;11.134;2024-02-21T12:49:08;25.00;16.30
1812;DHT22;904;47.814;11.134;2024-02-21T12:51:36;24.90;15.70
1812;DHT22;904;47.814;11.134;2024-02-21T12:54:07;24.80;15.90
1812;DHT22;904;47.814;11.134;2024-02-21T12:56:36;24.70;16.60
1812;DHT22;904;47.814;11.134;2024-02-21T12:59:03;24.60;15.60
1812;DHT22;904;47.814;11.134;2024-02-21T13:01:30;24.30;17.30
1812;DHT22;904;47.814;11.134;2024-02-21T13:03:58;24.00;16.70
1812;DHT22;904;47.814;11.134;2024-02-21T13:06:26;23.90;17.10
1812;DHT22;904;47.814;11.134;2024-02-21T13:08:55;23.70;17.50
1812;DHT22;904;47.814;11.134;2024-02-21T13:11:22;23.50;17.40
1812;DHT22;904;47.814;11.134;2024-02-21T13:13:52;23.30;18.00
1812;DHT22;904;47.814;11.134;2024-02-21T13:16:19;23.10;18.10
1812;DHT22;904;47.814;11.134;2024-02-21T13:18:48;22.90;18.30
1812;DHT22;904;47.814;11.134;2024-02-21T13:21:15;22.60;18.10
1812;DHT22;904;47.814;11.134;2024-02-21T13:23:41;22.50;18.50
1812;DHT22;904;47.814;11.134;2024-02-21T13:26:11;22.30;17.10
1812;DHT22;904;47.814;11.134;2024-02-21T13:28:38;22.10;17.10
1812;DHT22;904;47.814;11.134;2024-02-21T13:31:05;21.90;17.80
1812;DHT22;904;47.814;11.134;2024-02-21T13:33:32;21.90;18.70
1812;DHT22;904;47.814;11.134;2024-02-21T13:35:59;21.80;18.00
1812;DHT22;904;47.814;11.134;2024-02-21T13:38:27;21.70;18.00
1812;DHT22;904;47.814;11.134;2024-02-21T13:40:54;21.70;18.90
1812;DHT22;904;47.814;11.134;2024-02-21T13:43:22;21.60;19.60
1812;DHT22;904;47.814;11.134;2024-02-21T13:45:58;21.50;20.20
1812;DHT22;904;47.814;11.134;2024-02-21T13:48:26;21.50;20.80
1812;DHT22;904;47.814;11.134;2024-02-21T13:50:54;21.50;20.90
1812;DHT22;904;47.814;11.134;2024-02-21T13:53:21;21.50;20.90
1812;DHT22;904;47.814;11.134;2024-02-21T13:55:48;21.40;20.30
1812;DHT22;904;47.814;11.134;2024-02-21T13:58:16;21.30;20.70
1812;DHT22;904;47.814;11.134;2024-02-21T14:00:44;21.10;21.10
1812;DHT22;904;47.814;11.134;2024-02-21T14:03:11;20.90;20.50
1812;DHT22;904;47.814;11.134;2024-02-21T14:05:38;20.70;20.90
1812;DHT22;904;47.814;11.134;2024-02-21T14:08:06;20.40;20.70
1812;DHT22;904;47.814;11.134;2024-02-21T14:10:33;20.20;20.50
1812;DHT22;904;47.814;11.134;2024-02-21T14:13:00;20.00;20.60
1812;DHT22;904;47.814;11.134;2024-02-21T14:15:27;19.80;20.40
1812;DHT22;904;47.814;11.134;2024-02-21T14:17:55;19.60;20.40
1812;DHT22;904;47.814;11.134;2024-02-21T14:20:22;19.40;20.20
1812;DHT22;904;47.814;11.134;2024-02-21T14:22:49;19.20;21.10
1812;DHT22;904;47.814;11.134;2024-02-21T14:25:16;19.10;21.00
1812;DHT22;904;47.814;11.134;2024-02-21T14:27:43;19.00;21.50
1812;DHT22;904;47.814;11.134;2024-02-21T14:30:10;18.80;21.80
1812;DHT22;904;47.814;11.134;2024-02-21T14:32:39;18.70;22.00
1812;DHT22;904;47.814;11.134;2024-02-21T14:35:09;18.50;22.40
1812;DHT22;904;47.814;11.134;2024-02-21T14:37:36;18.40;23.20
1812;DHT22;904;47.814;11.134;2024-02-21T14:40:04;18.30;22.30
1812;DHT22;904;47.814;11.134;2024-02-21T14:42:31;18.10;22.40
1812;DHT22;904;47.814;11.134;2024-02-21T14:44:58;18.00;22.00
1812;DHT22;904;47.814;11.134;2024-02-21T14:47:29;17.80;22.00
1812;DHT22;904;47.814;11.134;2024-02-21T14:49:57;17.70;22.20
1812;DHT22;904;47.814;11.134;2024-02-21T14:52:25;17.60;22.20
1812;DHT22;904;47.814;11.134;2024-02-21T14:54:53;17.60;22.30
1812;DHT22;904;47.814;11.134;2024-02-21T14:57:20;17.40;23.30
1812;DHT22;904;47.814;11.134;2024-02-21T14:59:47;17.40;23.50
1812;DHT22;904;47.814;11.134;2024-02-21T15:02:15;17.30;23.60
1812;DHT22;904;47.814;11.134;2024-02-21T15:04:42;17.20;23.80
1812;DHT22;904;47.814;11.134;2024-02-21T15:07:09;17.10;23.90
1812;DHT22;904;47.814;11.134;2024-02-21T15:09:38;17.00;24.90
1812;DHT22;904;47.814;11.134;2024-02-21T15:12:06;16.90;24.90
1812;DHT22;904;47.814;11.134;2024-02-21T15:14:33;16.90;24.30
1812;DHT22;904;47.814;11.134;2024-02-21T15:17:01;16.80;24.50
1812;DHT22;904;47.814;11.134;2024-02-21T15:19:28;16.70;24.50
1812;DHT22;904;47.814;11.134;2024-02-21T15:21:55;16.60;24.60
1812;DHT22;904;47.814;11.134;2024-02-21T15:24:22;16.50;24.40
1812;DHT22;904;47.814;11.134;2024-02-21T15:26:50;16.50;24.10
1812;DHT22;904;47.814;11.134;2024-02-21T15:29:17;16.50;24.00
1812;DHT22;904;47.814;11.134;2024-02-21T15:31:45;16.40;24.50
1812;DHT22;904;47.814;11.134;2024-02-21T15:34:13;16.30;24.60
1812;DHT22;904;47.814;11.134;2024-02-21T15:36:41;16.30;24.70
1812;DHT22;904;47.814;11.134;2024-02-21T15:39:08;16.20;25.00
1812;DHT22;904;47.814;11.134;2024-02-21T15:41:36;16.20;24.90
1812;DHT22;904;47.814;11.134;2024-02-21T15:44:05;16.10;24.80
1812;DHT22;904;47.814;11.134;2024-02-21T15:46:35;16.00;25.10
1812;DHT22;904;47.814;11.134;2024-02-21T15:49:04;16.00;26.00
1812;DHT22;904;47.814;11.134;2024-02-21T15:51:32;15.90;26.60
1812;DHT22;904;47.814;11.134;2024-02-21T15:54:00;15.80;26.90
1812;DHT22;904;47.814;11.134;2024-02-21T15:56:29;15.80;28.10
1812;DHT22;904;47.814;11.134;2024-02-21T15:58:57;15.70;29.50
1812;DHT22;904;47.814;11.134;2024-02-21T16:01:26;15.60;30.70
1812;DHT22;904;47.814;11.134;2024-02-21T16:03:54;15.50;32.50
1812;DHT22;904;47.814;11.134;2024-02-21T16:06:25;15.50;33.00
1812;DHT22;904;47.814;11.134;2024-02-21T16:08:55;15.40;33.60
1812;DHT22;904;47.814;11.134;2024-02-21T16:11:27;15.40;33.00
1812;DHT22;904;47.814;11.134;2024-02-21T16:13:54;15.30;33.80